Time;durP1;ratioP1;P1;durP2;ratioP2;P2;SDS_P1;SDS_P2;PMS_P1;PMS_P2;Temp;Humidity;BMP_temperature;BMP_pressure;BME280_temperature;BME280_humidity;BME280_pressure;Samples;Min_cycle;Max_cycle;Signal;HPM_P1;HPM_P2
2022/10/25 00:01:01;;;;;;;7.22;2.65;;;11.70;99.90;;;;;;5014024;28;20084;-68
2022/10/25 00:03:27;;;;;;;6.57;2.88;;;11.70;99.90;;;;;;4996418;28;20037;-68
2022/10/25 00:05:53;;;;;;;8.98;3.38;;;11.70;99.90;;;;;;5013645;28;20112;-69
2022/10/25 00:08:18;;;;;;;3.70;2.30;;;11.70;99.90;;;;;;5013916;28;20022;-69
2022/10/25 00:10:44;;;;;;;10.52;2.80;;;11.70;99.90;;;;;;4996283;28;20526;-69
2022/10/25 00:13:10;;;;;;;7.32;2.60;;;11.70;99.90;;;;;;5013899;28;20478;-68
2022/10/25 00:15:35;;;;;;;6.30;2.50;;;11.60;99.90;;;;;;5014036;28;20018;-69
2022/10/25 00:18:01;;;;;;;8.15;2.50;;;11.60;99.90;;;;;;4996163;28;20458;-69
2022/10/25 00:20:27;;;;;;;4.32;2.95;;;11.60;99.90;;;;;;5014116;28;20041;-69
2022/10/25 00:22:52;;;;;;;6.32;3.38;;;11.50;99.90;;;;;;5013911;28;20022;-69
2022/10/25 00:25:18;;;;;;;5.97;3.22;;;11.50;99.90;;;;;;5013826;28;20028;-69
2022/10/25 00:27:44;;;;;;;11.43;3.90;;;11.50;99.90;;;;;;5014028;28;20382;-69
2022/10/25 00:30:10;;;;;;;11.82;4.00;;;11.50;99.90;;;;;;4996064;28;20038;-69
2022/10/25 00:32:36;;;;;;;6.93;3.72;;;11.50;99.90;;;;;;5014031;28;20030;-69
2022/10/25 00:35:02;;;;;;;7.13;2.88;;;11.50;99.90;;;;;;4995815;28;20026;-69
2022/10/25 00:37:28;;;;;;;9.70;3.63;;;11.50;99.90;;;;;;5013680;28;20026;-69
2022/10/25 00:39:53;;;;;;;5.32;2.83;;;11.50;99.90;;;;;;5013974;28;20099;-69
2022/10/25 00:42:22;;;;;;;7.72;3.10;;;11.50;99.90;;;;;;5013394;28;20501;-69
2022/10/25 00:45:08;;;;;;;11.55;3.80;;;11.50;99.90;;;;;;4995680;28;20029;-70
2022/10/25 00:47:42;;;;;;;8.02;2.40;;;11.50;99.90;;;;;;5013648;28;20049;-69
2022/10/25 00:50:33;;;;;;;7.72;2.70;;;11.50;99.90;;;;;;5013676;28;20030;-69
2022/10/25 00:53:07;;;;;;;5.57;2.70;;;11.40;99.90;;;;;;4996075;28;20049;-69
2022/10/25 00:55:34;;;;;;;6.43;3.20;;;11.40;99.90;;;;;;5013638;28;20034;-69
2022/10/25 00:58:05;;;;;;;8.60;3.42;;;11.40;99.90;;;;;;5013500;28;20026;-69
2022/10/25 01:00:31;;;;;;;7.47;3.80;;;11.50;99.90;;;;;;5013313;28;20054;-69
2022/10/25 01:02:57;;;;;;;10.82;4.43;;;11.50;99.90;;;;;;5013453;28;20085;-69
2022/10/25 01:05:23;;;;;;;7.07;3.28;;;11.40;99.90;;;;;;5013440;28;20033;-69
2022/10/25 01:07:49;;;;;;;6.07;3.20;;;11.40;99.90;;;;;;5014696;28;20037;-69
2022/10/25 01:10:15;;;;;;;6.15;2.85;;;11.40;99.90;;;;;;5016983;28;20113;-69
2022/10/25 01:12:40;;;;;;;6.47;3.33;;;11.50;99.90;;;;;;4999243;28;20175;-69
2022/10/25 01:15:07;;;;;;;7.53;3.20;;;11.50;99.90;;;;;;4999408;28;20030;-69
2022/10/25 01:17:49;;;;;;;7.93;3.70;;;11.50;99.90;;;;;;4999319;28;20026;-69
2022/10/25 01:20:51;;;;;;;10.43;3.53;;;11.40;99.90;;;;;;4999277;28;20033;-69
2022/10/25 01:23:38;;;;;;;6.88;3.05;;;11.40;99.90;;;;;;5016732;28;20026;-69
2022/10/25 01:26:06;;;;;;;6.65;3.53;;;11.40;99.90;;;;;;4998986;28;20022;-69
2022/10/25 01:29:07;;;;;;;6.68;3.58;;;11.40;99.90;;;;;;5016917;28;20540;-69
2022/10/25 01:31:35;;;;;;;4.80;2.40;;;11.40;99.90;;;;;;4999142;28;20042;-70
2022/10/25 01:34:09;;;;;;;4.60;2.42;;;11.40;99.90;;;;;;5016942;28;20026;-70
2022/10/25 01:36:57;;;;;;;7.22;2.33;;;11.40;99.90;;;;;;4999139;28;20033;-69
2022/10/25 01:39:25;;;;;;;4.25;2.70;;;11.40;99.90;;;;;;5015178;28;20026;-69
2022/10/25 01:42:00;;;;;;;4.73;2.77;;;11.40;99.90;;;;;;4998790;28;20026;-70
2022/10/25 01:44:46;;;;;;;4.22;2.17;;;11.50;99.90;;;;;;5016365;28;20058;-70
2022/10/25 01:47:21;;;;;;;3.17;1.80;;;11.50;99.90;;;;;;5016374;28;20402;-69
2022/10/25 01:49:52;;;;;;;10.02;2.58;;;11.50;99.90;;;;;;5016113;28;20112;-69
2022/10/25 01:52:20;;;;;;;3.65;1.77;;;11.60;99.90;;;;;;5015960;28;20034;-69
2022/10/25 01:54:45;;;;;;;4.67;2.00;;;11.60;99.90;;;;;;4998576;28;20028;-69
2022/10/25 01:57:29;;;;;;;3.50;2.05;;;11.60;99.90;;;;;;5015765;28;20100;-69
2022/10/25 01:59:58;;;;;;;5.82;1.88;;;11.60;99.90;;;;;;4998527;28;20030;-70
2022/10/25 02:02:30;;;;;;;6.22;1.90;;;11.60;99.90;;;;;;4998462;28;20026;-70
2022/10/25 02:05:14;;;;;;;2.00;1.80;;;11.70;99.90;;;;;;5016231;28;20026;-71
2022/10/25 02:07:50;;;;;;;6.15;1.95;;;11.80;99.90;;;;;;5015870;28;20033;-70
2022/10/25 02:10:21;;;;;;;5.43;1.50;;;11.90;99.90;;;;;;5015567;28;20080;-70
2022/10/25 02:13:05;;;;;;;7.95;3.05;;;11.90;99.90;;;;;;5016079;28;20062;-70
2022/10/25 02:15:40;;;;;;;2.75;1.70;;;11.90;99.90;;;;;;5015784;28;20385;-70
2022/10/25 02:18:14;;;;;;;4.45;1.40;;;12.00;99.90;;;;;;4998265;28;20034;-70
2022/10/25 02:20:43;;;;;;;3.67;2.45;;;12.10;99.90;;;;;;4997585;28;20030;-70
2022/10/25 02:23:09;;;;;;;3.65;1.48;;;12.10;99.90;;;;;;4998118;28;20029;-70
2022/10/25 02:25:39;;;;;;;2.13;1.45;;;12.20;99.90;;;;;;4998010;28;20052;-70
2022/10/25 02:28:08;;;;;;;4.82;1.35;;;12.20;99.90;;;;;;4997925;28;20022;-70
2022/10/25 02:30:35;;;;;;;;;;;12.20;99.90;;;;;;5015799;28;20037;-70
2022/10/25 02:33:01;;;;;;;3.20;1.60;;;12.20;99.90;;;;;;5015262;28;20381;-70
2022/10/25 02:35:27;;;;;;;3.63;1.70;;;12.20;99.90;;;;;;4997441;28;20022;-70
2022/10/25 02:37:52;;;;;;;6.28;1.65;;;12.30;99.90;;;;;;4997760;28;20022;-70
2022/10/25 02:40:18;;;;;;;5.13;1.52;;;12.30;99.90;;;;;;4997665;28;20386;-70
2022/10/25 02:42:44;;;;;;;1.80;1.33;;;12.30;99.90;;;;;;4997586;28;20062;-70
2022/10/25 02:45:10;;;;;;;3.30;1.50;;;12.20;99.90;;;;;;5014885;28;20048;-70
2022/10/25 02:47:35;;;;;;;2.15;1.58;;;12.20;99.90;;;;;;5015139;28;20373;-70
2022/10/25 02:50:02;;;;;;;6.43;1.45;;;12.20;99.90;;;;;;5014991;28;20036;-70
2022/10/25 02:52:27;;;;;;;2.97;1.90;;;12.20;99.90;;;;;;5014760;28;20065;-70
2022/10/25 02:54:53;;;;;;;2.15;1.67;;;12.20;99.90;;;;;;4997487;28;20026;-70
2022/10/25 02:57:18;;;;;;;8.77;1.80;;;12.20;99.90;;;;;;5014681;28;20027;-70
2022/10/25 02:59:44;;;;;;;7.75;1.52;;;12.20;99.90;;;;;;4997298;28;20069;-70
2022/10/25 03:02:10;;;;;;;3.90;1.60;;;12.20;99.90;;;;;;5015136;28;20466;-70
2022/10/25 03:04:35;;;;;;;2.72;2.35;;;12.20;99.90;;;;;;5014783;28;20026;-70
2022/10/25 03:07:01;;;;;;;2.28;1.77;;;12.20;99.90;;;;;;5014446;28;20359;-70
2022/10/25 03:09:27;;;;;;;5.80;1.90;;;12.20;99.90;;;;;;5014645;28;20029;-71
2022/10/25 03:11:52;;;;;;;5.93;2.25;;;12.20;99.90;;;;;;4997411;28;20029;-70
2022/10/25 03:14:18;;;;;;;5.18;1.67;;;12.20;99.90;;;;;;5014644;28;20029;-70
2022/10/25 03:16:43;;;;;;;4.75;1.73;;;12.20;99.90;;;;;;4997135;28;20036;-70
2022/10/25 03:19:09;;;;;;;4.22;2.08;;;12.20;99.90;;;;;;4997114;28;20030;-70
2022/10/25 03:21:35;;;;;;;6.28;2.10;;;12.20;99.90;;;;;;5014540;28;20029;-70
2022/10/25 03:24:00;;;;;;;10.80;2.20;;;12.20;99.90;;;;;;4996971;28;20580;-70
2022/10/25 03:26:26;;;;;;;5.65;2.10;;;12.20;99.90;;;;;;4996847;28;20034;-70
2022/10/25 03:28:52;;;;;;;4.97;2.15;;;12.10;99.90;;;;;;5014666;28;20029;-70
2022/10/25 03:31:19;;;;;;;3.13;2.35;;;12.10;99.90;;;;;;4996340;28;20038;-69
2022/10/25 03:33:45;;;;;;;8.85;2.05;;;12.10;99.90;;;;;;5014644;28;20033;-70
2022/10/25 03:36:11;;;;;;;2.97;1.77;;;12.20;99.90;;;;;;4996906;28;20022;-70
2022/10/25 03:38:37;;;;;;;2.63;1.98;;;12.20;99.90;;;;;;5014295;28;20022;-70
2022/10/25 03:41:02;;;;;;;6.65;1.90;;;12.10;99.90;;;;;;5014444;28;20029;-70
2022/10/25 03:43:28;;;;;;;9.18;2.17;;;12.10;99.90;;;;;;4996570;28;20370;-70
2022/10/25 03:45:54;;;;;;;5.93;1.63;;;12.10;99.90;;;;;;4996417;28;20128;-70
2022/10/25 03:48:19;;;;;;;6.90;1.70;;;12.10;99.90;;;;;;5014331;28;20038;-70
2022/10/25 03:50:45;;;;;;;5.05;1.65;;;12.10;99.90;;;;;;4996378;28;20031;-70
2022/10/25 03:53:11;;;;;;;2.25;1.95;;;12.10;99.90;;;;;;5014314;28;20030;-70
2022/10/25 03:55:36;;;;;;;4.07;1.67;;;12.10;99.90;;;;;;4996483;28;20038;-70
2022/10/25 03:58:02;;;;;;;6.28;2.15;;;12.10;99.90;;;;;;4996176;28;20028;-70
2022/10/25 04:00:28;;;;;;;2.88;1.80;;;12.10;99.90;;;;;;5014567;28;20164;-70
2022/10/25 04:02:58;;;;;;;2.30;1.17;;;12.10;99.90;;;;;;4996492;28;20026;-70
2022/10/25 04:05:25;;;;;;;4.78;2.00;;;12.20;99.90;;;;;;5013934;28;20033;-70
2022/10/25 04:07:51;;;;;;;3.35;1.73;;;12.20;99.90;;;;;;4996431;28;20026;-71
2022/10/25 04:10:18;;;;;;;4.72;2.08;;;12.20;99.90;;;;;;5013773;28;20033;-70
2022/10/25 04:12:44;;;;;;;4.65;2.08;;;12.10;99.90;;;;;;4996197;28;20036;-70
2022/10/25 04:15:10;;;;;;;5.20;1.67;;;12.10;99.90;;;;;;5014327;28;20026;-70
2022/10/25 04:17:36;;;;;;;2.53;1.50;;;12.10;99.90;;;;;;4996105;28;20029;-70
2022/10/25 04:20:02;;;;;;;2.45;1.27;;;12.00;99.90;;;;;;4996220;28;20093;-71
2022/10/25 04:22:28;;;;;;;4.40;1.33;;;12.00;99.90;;;;;;5013867;28;20026;-70
2022/10/25 04:24:53;;;;;;;3.42;0.80;;;12.00;99.90;;;;;;4995900;28;20125;-70
2022/10/25 04:27:19;;;;;;;4.47;0.70;;;12.10;99.90;;;;;;4996145;28;20058;-70
2022/10/25 04:29:45;;;;;;;2.75;0.60;;;12.20;99.90;;;;;;5013871;28;20064;-70
2022/10/25 04:32:10;;;;;;;2.42;0.70;;;12.20;99.90;;;;;;5014099;28;20026;-71
2022/10/25 04:34:36;;;;;;;2.30;0.75;;;12.30;99.90;;;;;;5013532;28;20030;-70
2022/10/25 04:37:02;;;;;;;2.63;0.93;;;12.40;99.90;;;;;;4996063;28;20026;-70
2022/10/25 04:39:28;;;;;;;8.18;1.58;;;12.50;99.90;;;;;;5013652;28;20057;-70
2022/10/25 04:41:54;;;;;;;0.55;0.40;;;12.60;99.90;;;;;;5013775;28;20065;-71
2022/10/25 04:44:19;;;;;;;7.07;0.47;;;12.80;99.90;;;;;;5002404;28;20038;-70
2022/10/25 04:46:45;;;;;;;1.75;0.50;;;13.00;99.90;;;;;;5019523;28;20103;-70
2022/10/25 04:49:12;;;;;;;4.18;0.70;;;13.20;99.90;;;;;;5018924;28;20034;-70
2022/10/25 04:51:38;;;;;;;3.15;0.65;;;13.30;99.90;;;;;;5018371;28;20113;-70
2022/10/25 04:54:04;;;;;;;0.60;0.40;;;13.40;99.90;;;;;;5000456;28;20037;-70
2022/10/25 04:56:30;;;;;;;1.45;0.40;;;13.40;99.90;;;;;;5000435;28;20033;-70
2022/10/25 04:58:57;;;;;;;2.00;0.90;;;13.40;99.90;;;;;;5017058;28;20030;-70
2022/10/25 05:01:23;;;;;;;2.13;0.38;;;13.50;99.90;;;;;;5000579;28;20040;-71
2022/10/25 05:03:49;;;;;;;2.05;0.35;;;13.60;99.90;;;;;;5018126;28;20022;-70
2022/10/25 05:06:21;;;;;;;1.20;0.55;;;13.70;99.90;;;;;;5018296;28;20073;-70
2022/10/25 05:08:47;;;;;;;1.88;0.60;;;13.80;99.90;;;;;;5000249;28;20028;-70
2022/10/25 05:11:16;;;;;;;1.10;0.60;;;13.80;99.90;;;;;;4999369;28;20148;-71
2022/10/25 05:13:43;;;;;;;2.80;0.70;;;13.90;99.90;;;;;;5017812;28;20378;-70
2022/10/25 05:16:16;;;;;;;0.95;0.35;;;13.90;99.90;;;;;;5016858;28;20373;-70
2022/10/25 05:18:44;;;;;;;2.88;0.80;;;13.90;99.90;;;;;;5000028;28;20029;-71
2022/10/25 05:21:10;;;;;;;1.23;0.38;;;13.80;99.90;;;;;;4999447;28;20040;-71
2022/10/25 05:23:35;;;;;;;2.10;0.40;;;13.90;99.90;;;;;;5019049;28;20030;-71
2022/10/25 05:26:11;;;;;;;1.23;0.50;;;13.90;99.90;;;;;;5018893;28;20104;-71
2022/10/25 05:28:38;;;;;;;3.53;0.57;;;14.00;99.90;;;;;;5017115;28;20037;-71
2022/10/25 05:31:05;;;;;;;3.53;0.43;;;13.90;99.90;;;;;;4998775;28;20394;-70
2022/10/25 05:33:32;;;;;;;2.30;0.52;;;13.80;99.90;;;;;;4998845;28;20065;-71
2022/10/25 05:35:59;;;;;;;0.77;0.38;;;13.80;99.90;;;;;;5016435;28;20030;-71
2022/10/25 05:38:25;;;;;;;2.05;0.47;;;13.70;99.90;;;;;;4998742;28;20030;-71
2022/10/25 05:40:52;;;;;;;1.63;0.82;;;13.60;99.90;;;;;;4998768;28;20026;-71
2022/10/25 05:43:18;;;;;;;1.02;0.68;;;13.60;99.90;;;;;;5016611;28;20052;-71
2022/10/25 05:45:43;;;;;;;1.98;0.77;;;13.60;99.90;;;;;;5016014;28;20339;-73
2022/10/25 05:48:09;;;;;;;2.08;0.80;;;13.60;99.90;;;;;;4998660;28;20480;-74
2022/10/25 05:50:35;;;;;;;0.75;0.57;;;13.60;99.90;;;;;;5016502;28;20034;-75
2022/10/25 05:53:00;;;;;;;1.27;0.63;;;13.70;99.90;;;;;;4998076;28;20036;-74
2022/10/25 05:55:26;;;;;;;4.03;0.70;;;13.70;99.90;;;;;;4998173;28;20117;-75
2022/10/25 05:57:51;;;;;;;2.97;0.80;;;13.60;99.90;;;;;;5016259;28;20049;-74
2022/10/25 06:00:17;;;;;;;1.45;0.65;;;13.60;99.90;;;;;;4998486;28;20393;-75
2022/10/25 06:02:43;;;;;;;5.22;1.02;;;13.60;99.90;;;;;;5015948;28;20029;-75
2022/10/25 06:05:08;;;;;;;3.25;0.80;;;13.50;99.90;;;;;;5015888;28;20032;-75
2022/10/25 06:07:34;;;;;;;3.47;1.10;;;13.50;99.90;;;;;;5015924;28;20025;-74
2022/10/25 06:10:00;;;;;;;1.58;0.95;;;13.50;99.90;;;;;;5015815;28;20060;-73
2022/10/25 06:12:26;;;;;;;2.15;0.95;;;13.50;99.90;;;;;;5015700;28;20105;-69
2022/10/25 06:14:51;;;;;;;2.83;1.00;;;13.40;99.90;;;;;;5015680;28;20381;-70
2022/10/25 06:17:17;;;;;;;2.70;1.42;;;13.40;99.90;;;;;;5015534;28;20025;-76
2022/10/25 06:19:42;;;;;;;3.53;1.20;;;13.40;99.90;;;;;;4997938;28;20394;-70
2022/10/25 06:22:08;;;;;;;1.15;0.70;;;13.50;99.90;;;;;;5015625;28;20026;-70
2022/10/25 06:24:34;;;;;;;2.33;0.60;;;13.80;99.90;;;;;;5015442;28;20029;-70
2022/10/25 06:26:59;;;;;;;2.78;0.52;;;13.90;99.90;;;;;;4998048;28;20030;-75
2022/10/25 06:29:25;;;;;;;1.17;0.40;;;14.00;99.90;;;;;;4997762;28;20029;-74
2022/10/25 06:31:50;;;;;;;0.95;0.47;;;14.10;99.90;;;;;;4998530;28;20386;-76
2022/10/25 06:34:16;;;;;;;2.72;0.40;;;14.10;99.90;;;;;;4995769;28;20443;-76
2022/10/25 06:36:42;;;;;;;2.20;0.40;;;14.10;99.90;;;;;;4978362;28;20048;-74
2022/10/25 06:39:07;;;;;;;0.55;0.40;;;14.20;99.90;;;;;;4995949;28;20451;-75
2022/10/25 06:41:35;;;;;;;1.60;0.35;;;14.30;99.90;;;;;;4979222;28;20113;-76
2022/10/25 06:44:01;;;;;;;1.92;0.43;;;14.40;99.90;;;;;;4996084;28;20069;-76
2022/10/25 06:46:32;;;;;;;0.82;0.30;;;14.50;99.90;;;;;;4995512;28;20141;-75
2022/10/25 06:48:59;;;;;;;1.35;0.68;;;14.70;99.90;;;;;;4978010;28;20034;-75
2022/10/25 06:51:27;;;;;;;0.52;0.50;;;14.80;99.90;;;;;;4995413;28;20034;-75
2022/10/25 06:53:55;;;;;;;2.22;0.30;;;14.90;99.90;;;;;;4977950;28;20063;-77
2022/10/25 06:56:21;;;;;;;0.55;0.17;;;14.90;99.90;;;;;;4995539;28;20391;-76
2022/10/25 06:58:46;;;;;;;1.15;0.50;;;15.20;99.90;;;;;;4978380;28;20030;-78
2022/10/25 07:01:15;;;;;;;6.43;0.40;;;15.40;99.90;;;;;;4977668;28;20035;-61
2022/10/25 07:03:42;;;;;;;1.95;0.73;;;15.70;99.90;;;;;;4995186;28;20030;-61
2022/10/25 07:06:10;;;;;;;29.90;7.53;;;16.10;99.90;;;;;;4994851;28;20558;-79
2022/10/25 07:08:37;;;;;;;1.87;0.30;;;16.40;99.90;;;;;;4977885;28;20034;-79
2022/10/25 07:11:03;;;;;;;3.15;0.30;;;16.40;99.90;;;;;;4978120;28;20038;-85
2022/10/25 07:13:31;;;;;;;2.90;0.35;;;16.50;99.90;;;;;;4977981;28;20496;-79
2022/10/25 07:16:08;;;;;;;1.05;0.17;;;16.70;99.90;;;;;;4977645;28;20474;-82
2022/10/25 07:18:35;;;;;;;0.47;0.10;;;16.90;99.90;;;;;;4995430;28;20026;-77
2022/10/25 07:21:03;;;;;;;2.08;0.68;;;17.00;99.90;;;;;;4995130;28;20065;-76
2022/10/25 07:23:29;;;;;;;1.08;0.20;;;17.10;99.90;;;;;;4977096;28;20205;-75
2022/10/25 07:25:56;;;;;;;2.50;0.40;;;17.20;99.90;;;;;;4977477;28;20022;-80
2022/10/25 07:28:22;;;;;;;2.38;0.35;;;17.30;99.90;;;;;;4995364;28;20347;-74
2022/10/25 07:30:48;;;;;;;1.85;0.20;;;17.30;99.90;;;;;;4994390;28;20483;-75
2022/10/25 07:33:17;;;;;;;1.02;0.30;;;17.50;99.90;;;;;;4977274;28;20041;-72
2022/10/25 07:35:49;;;;;;;2.47;0.30;;;17.70;99.90;;;;;;4995178;28;20112;-73
2022/10/25 07:38:15;;;;;;;0.88;0.10;;;17.60;99.90;;;;;;4977149;28;20418;-72
2022/10/25 07:40:42;;;;;;;2.78;0.10;;;17.70;99.90;;;;;;4994590;28;20113;-59
2022/10/25 07:43:08;;;;;;;0.68;0.20;;;17.90;99.90;;;;;;4994290;28;20041;-59
2022/10/25 07:45:35;;;;;;;0.90;0.22;;;18.10;99.90;;;;;;4994134;28;20062;-59
2022/10/25 07:48:01;;;;;;;0.90;0.40;;;18.30;99.90;;;;;;4994150;28;20026;-63
2022/10/25 07:50:27;;;;;;;1.02;0.10;;;18.40;99.90;;;;;;4994216;28;20497;-60
2022/10/25 07:52:54;;;;;;;0.52;0.10;;;18.40;99.90;;;;;;4977069;28;20034;-59
2022/10/25 07:55:19;;;;;;;2.22;0.20;;;18.40;99.90;;;;;;4994475;28;20037;-60
2022/10/25 07:57:45;;;;;;;3.72;0.25;;;18.50;99.90;;;;;;4994153;28;20491;-60
2022/10/25 08:00:11;;;;;;;0.28;0.10;;;18.60;99.90;;;;;;4994391;28;20085;-59
2022/10/25 08:02:37;;;;;;;2.10;0.20;;;18.60;99.90;;;;;;4977239;28;20196;-60
2022/10/25 08:05:02;;;;;;;6.72;0.52;;;18.70;99.90;;;;;;4994427;28;20121;-63
2022/10/25 08:07:28;;;;;;;2.20;0.20;;;18.60;99.90;;;;;;4994469;28;20066;-65
2022/10/25 08:09:54;;;;;;;0.65;0.10;;;18.90;99.90;;;;;;4994351;28;20526;-65
2022/10/25 08:12:19;;;;;;;2.63;0.20;;;19.00;99.90;;;;;;4994096;28;20391;-65
2022/10/25 08:14:45;;;;;;;2.50;0.20;;;19.10;99.90;;;;;;4976421;28;20088;-65
2022/10/25 08:17:11;;;;;;;0.90;0.20;;;19.30;99.90;;;;;;4994728;28;20105;-65
2022/10/25 08:19:36;;;;;;;1.95;0.10;;;19.30;99.90;;;;;;4981043;28;20058;-79
2022/10/25 08:22:02;;;;;;;0.93;0.20;;;19.30;99.90;;;;;;5001367;28;20104;-81
2022/10/25 08:24:28;;;;;;;0.15;0.03;;;19.30;99.90;;;;;;5000313;28;20030;-80
2022/10/25 08:26:53;;;;;;;0.25;0.10;;;19.20;99.90;;;;;;5000593;28;20486;-85
2022/10/25 08:29:19;;;;;;;1.27;0.17;;;19.10;99.90;;;;;;4980811;28;20487;-59
2022/10/25 08:31:45;;;;;;;3.72;0.38;;;20.80;99.90;;;;;;4997457;28;20031;-59
2022/10/25 08:34:10;;;;;;;2.15;0.17;;;19.70;99.90;;;;;;4980382;28;20026;-78
2022/10/25 08:36:36;;;;;;;3.92;0.30;;;19.90;98.30;;;;;;4980560;28;20475;-78
2022/10/25 08:39:02;;;;;;;2.83;0.20;;;19.90;98.40;;;;;;4980083;28;20034;-77
2022/10/25 08:41:42;;;;;;;0.55;0.22;;;20.10;97.60;;;;;;4980076;28;20129;-78
2022/10/25 08:44:08;;;;;;;0.75;0.25;;;20.10;97.30;;;;;;4980566;28;20030;-78
2022/10/25 08:46:42;;;;;;;1.55;0.20;;;20.30;96.50;;;;;;4979854;28;20058;-78
2022/10/25 08:49:08;;;;;;;3.03;0.10;;;20.40;96.50;;;;;;4979932;28;20113;-78
2022/10/25 08:51:39;;;;;;;2.15;0.40;;;20.70;95.80;;;;;;4997267;28;20118;-78
2022/10/25 08:54:15;;;;;;;2.90;0.20;;;21.00;95.10;;;;;;4980264;28;20061;-80
2022/10/25 08:56:41;;;;;;;1.98;0.63;;;20.90;93.90;;;;;;4980389;28;20031;-79
2022/10/25 08:59:14;;;;;;;0.90;0.10;;;21.10;93.40;;;;;;4997870;28;20143;-81
2022/10/25 09:01:48;;;;;;;4.93;0.30;;;21.10;92.60;;;;;;4980681;28;20122;-80
2022/10/25 09:04:14;;;;;;;6.57;0.20;;;21.00;92.50;;;;;;4980396;28;20119;-80
2022/10/25 09:06:43;;;;;;;0.70;0.25;;;21.10;91.60;;;;;;4998086;28;20030;-81
2022/10/25 09:09:27;;;;;;;;;;;21.10;91.10;;;;;;4998118;28;20493;-81
2022/10/25 09:12:17;;;;;;;2.47;0.17;;;21.20;90.70;;;;;;4980023;28;19920;-80
2022/10/25 09:14:46;;;;;;;2.03;0.22;;;21.00;90.60;;;;;;4980346;28;20033;-81
2022/10/25 09:17:16;;;;;;;1.75;0.32;;;20.90;90.10;;;;;;4980704;28;20026;-81
2022/10/25 09:20:14;;;;;;;0.47;0.08;;;21.10;90.00;;;;;;4997859;28;20069;-81
2022/10/25 09:22:55;;;;;;;2.80;0.10;;;21.10;87.90;;;;;;4979359;28;20042;-81
2022/10/25 09:25:21;;;;;;;2.75;0.13;;;20.80;88.00;;;;;;4980270;28;20030;-81
2022/10/25 09:28:09;;;;;;;1.35;0.10;;;20.80;88.80;;;;;;4997098;28;20026;-81
2022/10/25 09:30:40;;;;;;;4.38;0.25;;;21.00;88.50;;;;;;4996823;28;20517;-80
2022/10/25 09:33:10;;;;;;;0.60;0.10;;;21.20;87.40;;;;;;4980263;28;20057;-81
2022/10/25 09:35:45;;;;;;;2.22;0.20;;;21.60;86.00;;;;;;4980270;28;20023;-80
2022/10/25 09:38:14;;;;;;;4.60;0.32;;;22.30;84.60;;;;;;4980261;28;20462;-81
2022/10/25 09:41:19;;;;;;;2.13;0.75;;;22.90;82.00;;;;;;4979712;28;20129;-81
2022/10/25 09:44:02;;;;;;;1.88;0.73;;;22.80;79.70;;;;;;4979780;28;20019;-82
2022/10/25 09:46:51;;;;;;;3.92;0.30;;;22.70;78.10;;;;;;4996984;28;20087;-82
2022/10/25 09:49:28;;;;;;;0.70;0.10;;;22.30;79.10;;;;;;4997723;28;20545;-81
2022/10/25 09:52:19;;;;;;;1.80;0.30;;;21.80;80.80;;;;;;4997270;28;20030;-82
2022/10/25 09:55:09;;;;;;;3.00;0.20;;;21.30;82.90;;;;;;4975107;28;20034;-82
2022/10/25 09:57:34;;;;;;;7.22;0.20;;;21.20;83.30;;;;;;4927734;28;20073;-83
2022/10/25 10:00:00;;;;;;;1.80;0.10;;;20.80;84.60;;;;;;4996961;28;20030;-83
2022/10/25 10:02:26;;;;;;;1.25;0.20;;;20.40;86.30;;;;;;4997193;28;20026;-83
2022/10/25 10:04:52;;;;;;;2.08;0.10;;;20.40;87.00;;;;;;4996984;28;20058;-82
2022/10/25 10:07:33;;;;;;;1.65;0.22;;;20.30;87.80;;;;;;4996995;28;20026;-83
2022/10/25 10:10:02;;;;;;;0.90;0.20;;;20.40;87.20;;;;;;4997089;28;20043;-83
2022/10/25 10:12:40;;;;;;;2.97;0.20;;;20.40;87.70;;;;;;4979501;28;20383;-84
2022/10/25 10:15:37;;;;;;;3.05;0.20;;;20.10;88.10;;;;;;4980000;28;20423;-84
2022/10/25 10:18:25;;;;;;;1.45;0.10;;;20.10;89.70;;;;;;4979234;28;20045;-84
2022/10/25 10:21:09;;;;;;;0.20;0.08;;;20.40;88.90;;;;;;4979578;28;20037;-83
2022/10/25 10:23:44;;;;;;;0.52;0.10;;;20.40;89.90;;;;;;4980325;28;20065;-82
2022/10/25 10:26:20;;;;;;;4.05;1.42;;;20.80;89.50;;;;;;4980024;28;20387;-84
2022/10/25 10:28:49;;;;;;;0.43;0.40;;;21.20;88.10;;;;;;4978732;28;20035;-60
2022/10/25 10:31:16;;;;;;;1.55;0.35;;;21.60;86.60;;;;;;4995803;28;20033;-61
2022/10/25 10:33:48;;;;;;;7.32;0.52;;;21.60;87.00;;;;;;4995392;28;20398;-61
2022/10/25 10:36:24;;;;;;;1.45;0.38;;;21.60;85.70;;;;;;4979154;28;20030;-64
2022/10/25 10:38:50;;;;;;;2.30;0.28;;;21.70;85.60;;;;;;4995779;28;20117;-60
2022/10/25 10:41:24;;;;;;;3.05;0.30;;;21.90;84.40;;;;;;4995005;28;20026;-60
2022/10/25 10:43:51;;;;;;;3.03;0.40;;;22.10;83.60;;;;;;4996233;28;20029;-83
2022/10/25 10:46:24;;;;;;;1.48;0.25;;;22.50;83.00;;;;;;4979064;28;20116;-85
2022/10/25 10:48:56;;;;;;;2.13;0.40;;;22.90;79.80;;;;;;4980972;28;20042;-86
2022/10/25 10:51:36;;;;;;;0.77;0.10;;;23.00;79.30;;;;;;4981761;28;20138;-87
2022/10/25 10:54:34;;;;;;;1.30;0.10;;;23.00;78.10;;;;;;4996303;28;20061;-83
2022/10/25 10:57:03;;;;;;;0.50;0.10;;;22.70;78.20;;;;;;4975891;28;20046;-85
2022/10/25 10:59:39;;;;;;;0.30;0.30;;;22.00;78.70;;;;;;4978442;28;20034;-83
2022/10/25 11:02:32;;;;;;;2.42;0.10;;;22.20;78.40;;;;;;4996438;28;20374;-58
2022/10/25 11:04:58;;;;;;;3.13;0.30;;;22.20;79.20;;;;;;4995193;28;20026;-58
2022/10/25 11:07:34;;;;;;;0.57;0.20;;;22.00;79.50;;;;;;4995862;28;20358;-58
2022/10/25 11:10:19;;;;;;;1.25;0.20;;;22.00;80.60;;;;;;4994888;28;20033;-60
2022/10/25 11:13:02;;;;;;;1.15;0.30;;;22.20;80.20;;;;;;4994690;28;20033;-60
2022/10/25 11:15:32;;;;;;;3.63;0.20;;;22.70;80.40;;;;;;4995332;28;20481;-60
2022/10/25 11:18:03;;;;;;;1.52;0.30;;;22.50;78.20;;;;;;4994720;28;20031;-60
2022/10/25 11:20:52;;;;;;;1.02;0.20;;;22.40;78.60;;;;;;4994596;28;20054;-60
2022/10/25 11:23:49;;;;;;;1.50;0.10;;;22.60;77.30;;;;;;4994983;28;20594;-60
2022/10/25 11:26:29;;;;;;;4.38;0.20;;;22.80;78.10;;;;;;4993543;28;20038;-60
2022/10/25 11:29:16;;;;;;;2.10;0.22;;;22.70;75.90;;;;;;4977721;28;20038;-60
2022/10/25 11:31:59;;;;;;;0.68;0.10;;;22.80;75.90;;;;;;4994642;28;20038;-60
2022/10/25 11:34:43;;;;;;;0.35;0.15;;;22.70;76.50;;;;;;4994137;28;20034;-60
2022/10/25 11:37:12;;;;;;;3.13;0.20;;;23.30;75.70;;;;;;4994459;28;20030;-60
2022/10/25 11:39:52;;;;;;;2.65;0.35;;;23.40;73.40;;;;;;4994310;28;20022;-60
2022/10/25 11:43:15;;;;;;;4.95;0.38;;;23.90;73.10;;;;;;4994507;28;20030;-60
2022/10/25 11:45:43;;;;;;;1.17;0.10;;;24.20;69.80;;;;;;4896079;29;20088;-60
2022/10/25 11:48:20;;;;;;;0.88;0.15;;;24.50;70.50;;;;;;4896459;29;20064;-60
2022/10/25 11:50:59;;;;;;;3.55;0.45;;;24.40;68.70;;;;;;4963692;28;20434;-60
2022/10/25 11:54:02;;;;;;;1.13;0.30;;;23.90;69.70;;;;;;4977083;28;20038;-60
2022/10/25 11:56:43;;;;;;;0.63;0.17;;;24.00;69.90;;;;;;4994295;28;20039;-60
2022/10/25 11:59:33;;;;;;;1.55;0.20;;;24.00;68.90;;;;;;4994418;28;20082;-60
2022/10/25 12:02:07;;;;;;;3.15;0.10;;;24.00;68.70;;;;;;4994949;28;20050;-61
2022/10/25 12:04:58;;;;;;;0.55;0.10;;;24.10;69.40;;;;;;4994273;28;20022;-60
2022/10/25 12:07:46;;;;;;;1.75;0.30;;;24.40;68.90;;;;;;4994261;28;20039;-61
2022/10/25 12:10:40;;;;;;;0.98;0.30;;;24.20;68.70;;;;;;4994096;28;20026;-60
2022/10/25 12:13:18;;;;;;;5.78;0.55;;;24.50;68.50;;;;;;4994250;28;20092;-60
2022/10/25 12:15:46;;;;;;;1.83;0.68;;;25.00;66.30;;;;;;4976866;28;20117;-60
2022/10/25 12:18:28;;;;;;;4.25;0.20;;;25.10;65.80;;;;;;4994147;28;20054;-60
2022/10/25 12:20:55;;;;;;;2.53;0.25;;;25.00;65.00;;;;;;4994246;28;20121;-60
2022/10/25 12:23:25;;;;;;;0.47;0.15;;;24.60;65.40;;;;;;4994688;28;20105;-60
2022/10/25 12:25:57;;;;;;;3.25;0.47;;;24.70;66.10;;;;;;4994020;28;20033;-60
2022/10/25 12:28:46;;;;;;;2.22;0.20;;;25.20;65.70;;;;;;4976659;28;20158;-61
2022/10/25 12:31:15;;;;;;;1.38;0.20;;;25.70;64.20;;;;;;4993926;28;20471;-61
2022/10/25 12:33:46;;;;;;;2.13;0.30;;;25.70;63.60;;;;;;4993993;28;20038;-61
2022/10/25 12:36:28;;;;;;;2.10;0.15;;;25.30;63.20;;;;;;4994170;28;20110;-61
2022/10/25 12:38:56;;;;;;;2.13;0.35;;;25.20;63.80;;;;;;4994079;28;20053;-61
2022/10/25 12:41:26;;;;;;;7.93;0.40;;;25.40;63.50;;;;;;4993866;28;20026;-60
2022/10/25 12:44:10;;;;;;;5.50;0.65;;;24.90;62.90;;;;;;4993816;28;20026;-60
2022/10/25 12:47:07;;;;;;;3.42;0.38;;;24.60;65.20;;;;;;4994349;28;20050;-59
2022/10/25 12:49:50;;;;;;;2.35;0.40;;;24.00;66.40;;;;;;4993806;28;20031;-59
2022/10/25 12:52:35;;;;;;;2.17;0.40;;;24.30;66.60;;;;;;4977061;28;20038;-59
2022/10/25 12:55:13;;;;;;;2.90;0.15;;;24.90;65.70;;;;;;4976558;28;20034;-59
2022/10/25 12:57:44;;;;;;;3.22;0.30;;;25.00;65.00;;;;;;4993970;28;20105;-60
2022/10/25 13:00:17;;;;;;;3.63;0.38;;;25.40;65.00;;;;;;4994011;28;20042;-60
2022/10/25 13:02:51;;;;;;;1.58;0.32;;;25.20;64.50;;;;;;4993599;28;20054;-59
2022/10/25 13:05:38;;;;;;;3.65;0.40;;;25.10;64.20;;;;;;4997339;28;20062;-59
2022/10/25 13:08:05;;;;;;;1.92;0.60;;;24.60;64.50;;;;;;4997478;28;20482;-59